createdAt,value
2023-05-19T00:00:15.732Z,100.00
2023-05-19T00:00:38.051Z,100.00
2023-05-19T00:01:00.658Z,100.00
2023-05-19T00:01:22.638Z,100.00
2023-05-19T00:01:45.582Z,100.00
2023-05-19T00:02:09.511Z,100.00
2023-05-19T00:02:33.938Z,100.00
2023-05-19T00:02:56.570Z,100.00
2023-05-19T00:03:21.917Z,100.00
2023-05-19T00:03:52.645Z,100.00
2023-05-19T00:04:15.561Z,100.00
2023-05-19T00:04:37.962Z,100.00
2023-05-19T00:05:02.155Z,100.00
2023-05-19T00:05:25.169Z,100.00
2023-05-19T00:05:47.110Z,100.00
2023-05-19T00:06:09.238Z,100.00
2023-05-19T00:06:32.005Z,100.00
2023-05-19T00:06:53.896Z,100.00
2023-05-19T00:07:17.606Z,100.00
2023-05-19T00:07:39.546Z,100.00
2023-05-19T00:08:01.759Z,100.00
2023-05-19T00:08:24.959Z,100.00
2023-05-19T00:08:46.792Z,100.00
2023-05-19T00:09:09.466Z,100.00
2023-05-19T00:09:31.536Z,100.00
2023-05-19T00:09:53.638Z,100.00
2023-05-19T00:10:16.281Z,100.00
2023-05-19T00:10:38.791Z,100.00
2023-05-19T00:11:01.353Z,100.00
2023-05-19T00:11:24.636Z,100.00
2023-05-19T00:11:46.590Z,100.00
2023-05-19T00:12:10.818Z,100.00
2023-05-19T00:12:32.820Z,100.00
2023-05-19T00:12:54.842Z,100.00
2023-05-19T00:13:16.798Z,100.00
2023-05-19T00:13:38.786Z,100.00
2023-05-19T00:14:00.787Z,100.00
2023-05-19T00:14:22.620Z,100.00
2023-05-19T00:14:44.654Z,100.00
2023-05-19T00:15:07.509Z,100.00
2023-05-19T00:15:29.650Z,100.00
2023-05-19T00:15:51.873Z,100.00
2023-05-19T00:16:14.023Z,100.00
2023-05-19T00:16:36.439Z,100.00
2023-05-19T00:16:58.630Z,100.00
2023-05-19T00:17:20.533Z,100.00
2023-05-19T00:17:42.706Z,100.00
2023-05-19T00:18:04.684Z,100.00
2023-05-19T00:18:26.705Z,100.00
2023-05-19T00:18:49.249Z,100.00
2023-05-19T00:19:11.197Z,100.00
2023-05-19T00:19:33.782Z,100.00
2023-05-19T00:19:55.565Z,100.00
2023-05-19T00:20:17.764Z,100.00
2023-05-19T00:20:39.980Z,100.00
2023-05-19T00:21:01.967Z,100.00
2023-05-19T00:21:23.932Z,100.00
2023-05-19T00:21:45.747Z,100.00
2023-05-19T00:22:07.507Z,100.00
2023-05-19T00:22:29.280Z,100.00
2023-05-19T00:22:51.697Z,100.00
2023-05-19T00:23:13.405Z,100.00
2023-05-19T00:23:35.249Z,100.00
2023-05-19T00:23:57.142Z,100.00
2023-05-19T00:24:18.935Z,100.00
2023-05-19T00:24:40.807Z,100.00
2023-05-19T00:25:03.006Z,100.00
2023-05-19T00:25:25.197Z,100.00
2023-05-19T00:25:46.981Z,100.00
2023-05-19T00:26:08.868Z,100.00
2023-05-19T00:26:30.797Z,100.00
2023-05-19T00:26:57.940Z,100.00
2023-05-19T00:27:19.772Z,100.00
2023-05-19T00:27:41.556Z,100.00
2023-05-19T00:28:03.417Z,100.00
2023-05-19T00:28:25.158Z,100.00
2023-05-19T00:28:47.702Z,100.00
2023-05-19T00:29:09.591Z,100.00
2023-05-19T00:29:31.474Z,100.00
2023-05-19T00:29:53.262Z,100.00
2023-05-19T00:30:15.455Z,100.00
2023-05-19T00:30:37.335Z,100.00
2023-05-19T00:31:01.222Z,100.00
2023-05-19T00:31:23.046Z,100.00
2023-05-19T00:31:44.987Z,100.00
2023-05-19T00:32:07.132Z,100.00
2023-05-19T00:32:29.051Z,100.00
2023-05-19T00:32:51.420Z,100.00
2023-05-19T00:33:13.453Z,100.00
2023-05-19T00:33:35.602Z,100.00
2023-05-19T00:33:57.693Z,100.00
2023-05-19T00:34:20.604Z,100.00
2023-05-19T00:34:43.011Z,100.00
2023-05-19T00:35:05.096Z,100.00
2023-05-19T00:35:27.081Z,100.00
2023-05-19T00:35:48.870Z,100.00
2023-05-19T00:36:10.779Z,100.00
2023-05-19T00:36:32.530Z,100.00
2023-05-19T00:36:54.255Z,100.00
2023-05-19T00:37:16.208Z,100.00
2023-05-19T00:37:38.092Z,100.00
2023-05-19T00:37:59.823Z,100.00
2023-05-19T00:38:21.769Z,100.00
2023-05-19T00:38:43.653Z,100.00
2023-05-19T00:39:05.547Z,100.00
2023-05-19T00:39:27.428Z,100.00
2023-05-19T00:39:49.539Z,100.00
2023-05-19T00:40:11.567Z,100.00
2023-05-19T00:40:35.008Z,100.00
2023-05-19T00:40:57.021Z,100.00
2023-05-19T00:41:18.868Z,100.00
2023-05-19T00:41:40.719Z,100.00
2023-05-19T00:42:03.088Z,100.00
2023-05-19T00:42:24.976Z,100.00
2023-05-19T00:42:46.861Z,100.00
2023-05-19T00:43:08.687Z,100.00
2023-05-19T00:43:30.737Z,100.00
2023-05-19T00:43:52.632Z,100.00
2023-05-19T00:44:14.510Z,100.00
2023-05-19T00:44:38.075Z,100.00
2023-05-19T00:44:59.847Z,100.00
2023-05-19T00:45:21.914Z,100.00
2023-05-19T00:45:43.717Z,100.00
2023-05-19T00:46:05.685Z,100.00
2023-05-19T00:46:27.494Z,100.00
2023-05-19T00:46:49.401Z,100.00
2023-05-19T00:47:11.272Z,100.00
2023-05-19T00:47:33.349Z,100.00
2023-05-19T00:47:55.270Z,100.00
2023-05-19T00:48:17.143Z,100.00
2023-05-19T00:48:39.222Z,100.00
2023-05-19T00:49:00.940Z,100.00
2023-05-19T00:49:22.768Z,100.00
2023-05-19T00:49:45.274Z,100.00
2023-05-19T00:50:07.287Z,100.00
2023-05-19T00:50:29.181Z,100.00
2023-05-19T00:50:51.170Z,100.00
2023-05-19T00:51:14.891Z,100.00
2023-05-19T00:51:37.473Z,100.00
2023-05-19T00:52:00.084Z,100.00
2023-05-19T00:52:21.953Z,100.00
2023-05-19T00:52:43.704Z,100.00
2023-05-19T00:53:05.726Z,100.00
2023-05-19T00:53:27.632Z,100.00
2023-05-19T00:53:51.200Z,100.00
2023-05-19T00:54:12.954Z,100.00
2023-05-19T00:54:34.916Z,100.00
2023-05-19T00:54:57.305Z,100.00
2023-05-19T00:55:19.537Z,100.00
2023-05-19T00:55:41.285Z,100.00
2023-05-19T00:56:03.196Z,100.00
2023-05-19T00:56:25.161Z,100.00
2023-05-19T00:56:46.948Z,100.00
2023-05-19T00:57:08.707Z,100.00
2023-05-19T00:57:30.720Z,100.00
2023-05-19T00:57:52.445Z,100.00
2023-05-19T00:58:14.204Z,100.00
2023-05-19T00:58:36.108Z,100.00
2023-05-19T00:58:58.800Z,100.00
2023-05-19T00:59:20.871Z,100.00
2023-05-19T00:59:42.682Z,100.00
2023-05-19T01:00:05.847Z,100.00
2023-05-19T01:00:27.755Z,100.00
2023-05-19T01:00:50.855Z,100.00
2023-05-19T01:01:14.888Z,100.00
2023-05-19T01:01:37.142Z,100.00
2023-05-19T01:01:59.206Z,100.00
2023-05-19T01:02:21.755Z,100.00
2023-05-19T01:02:43.720Z,100.00
2023-05-19T01:03:11.703Z,100.00
2023-05-19T01:03:35.863Z,100.00
2023-05-19T01:03:59.289Z,100.00
2023-05-19T01:04:22.066Z,100.00
2023-05-19T01:04:44.081Z,100.00
2023-05-19T01:05:06.913Z,100.00
2023-05-19T01:05:28.759Z,100.00
2023-05-19T01:05:53.885Z,100.00
2023-05-19T01:06:15.825Z,100.00
2023-05-19T01:06:38.914Z,100.00
2023-05-19T01:07:00.747Z,100.00
2023-05-19T01:07:23.463Z,100.00
2023-05-19T01:07:47.233Z,100.00
2023-05-19T01:08:09.423Z,100.00
2023-05-19T01:08:32.337Z,100.00
2023-05-19T01:08:54.100Z,100.00
2023-05-19T01:09:16.929Z,100.00
2023-05-19T01:09:38.813Z,100.00
2023-05-19T01:10:03.082Z,100.00
2023-05-19T01:10:24.830Z,100.00
2023-05-19T01:10:46.720Z,100.00
2023-05-19T01:11:08.622Z,100.00
2023-05-19T01:11:30.729Z,100.00
2023-05-19T01:11:54.020Z,100.00
2023-05-19T01:12:16.052Z,100.00
2023-05-19T01:12:38.004Z,100.00
2023-05-19T01:12:59.881Z,100.00
2023-05-19T01:13:21.699Z,100.00
2023-05-19T01:13:43.557Z,100.00
2023-05-19T01:14:05.442Z,100.00
2023-05-19T01:14:27.432Z,100.00
2023-05-19T01:14:49.199Z,100.00
2023-05-19T01:15:11.614Z,100.00
2023-05-19T01:15:34.057Z,100.00
2023-05-19T01:16:07.157Z,100.00
2023-05-19T01:16:34.983Z,100.00
2023-05-19T01:17:10.412Z,100.00
2023-05-19T01:17:34.640Z,100.00
2023-05-19T01:18:07.588Z,100.00
2023-05-19T01:18:32.592Z,100.00
2023-05-19T01:19:04.527Z,100.00
2023-05-19T01:19:47.149Z,100.00
2023-05-19T01:20:16.289Z,100.00
2023-05-19T01:20:39.925Z,100.00
2023-05-19T01:21:07.536Z,100.00
2023-05-19T01:21:49.550Z,100.00
2023-05-19T01:22:31.062Z,100.00
2023-05-19T01:23:17.020Z,100.00
2023-05-19T01:23:47.826Z,100.00
2023-05-19T01:24:15.612Z,100.00
2023-05-19T01:24:45.784Z,100.00
2023-05-19T01:25:13.338Z,100.00
2023-05-19T01:25:47.278Z,100.00
2023-05-19T01:26:16.400Z,100.00
2023-05-19T01:26:57.219Z,100.00
2023-05-19T01:27:28.306Z,100.00
2023-05-19T01:27:50.113Z,100.00
2023-05-19T01:28:30.583Z,100.00
2023-05-19T01:29:11.219Z,100.00
2023-05-19T01:29:35.938Z,100.00
2023-05-19T01:30:09.895Z,100.00
2023-05-19T01:30:38.123Z,100.00
2023-05-19T01:31:00.159Z,100.00
2023-05-19T01:31:23.998Z,100.00
2023-05-19T01:31:48.178Z,100.00
2023-05-19T01:32:10.294Z,100.00
2023-05-19T01:32:32.204Z,100.00
2023-05-19T01:32:55.130Z,100.00
2023-05-19T01:33:18.574Z,100.00
2023-05-19T01:33:40.578Z,100.00
2023-05-19T01:34:04.757Z,100.00
2023-05-19T01:34:26.769Z,100.00
2023-05-19T01:34:49.353Z,100.00
2023-05-19T01:35:11.355Z,100.00
2023-05-19T01:35:33.595Z,100.00
2023-05-19T01:35:55.649Z,100.00
2023-05-19T01:36:19.761Z,100.00
2023-05-19T01:36:41.810Z,100.00
2023-05-19T01:37:03.688Z,100.00
2023-05-19T01:37:25.885Z,100.00
2023-05-19T01:37:47.677Z,100.00
2023-05-19T01:38:10.036Z,100.00
2023-05-19T01:38:31.963Z,100.00
2023-05-19T01:38:54.772Z,100.00
2023-05-19T01:39:16.663Z,100.00
2023-05-19T01:39:38.568Z,100.00
2023-05-19T01:40:00.775Z,100.00
2023-05-19T01:40:23.130Z,100.00
2023-05-19T01:40:46.154Z,100.00
2023-05-19T01:41:08.135Z,100.00
2023-05-19T01:41:30.022Z,100.00
2023-05-19T01:41:51.805Z,100.00
2023-05-19T01:42:13.693Z,100.00
2023-05-19T01:42:38.048Z,100.00
2023-05-19T01:43:00.812Z,100.00
2023-05-19T01:43:22.929Z,100.00
2023-05-19T01:43:44.821Z,100.00
2023-05-19T01:44:06.609Z,100.00
2023-05-19T01:44:29.000Z,100.00
2023-05-19T01:44:51.435Z,100.00
2023-05-19T01:45:13.326Z,100.00
2023-05-19T01:45:36.228Z,100.00
2023-05-19T01:45:59.103Z,100.00
2023-05-19T01:46:21.589Z,100.00
2023-05-19T01:46:43.492Z,100.00
2023-05-19T01:47:05.621Z,100.00
2023-05-19T01:47:27.497Z,100.00
2023-05-19T01:47:54.135Z,100.00
2023-05-19T01:48:16.469Z,100.00
2023-05-19T01:48:40.398Z,100.00
2023-05-19T01:49:02.143Z,100.00
2023-05-19T01:49:24.065Z,100.00
2023-05-19T01:49:45.954Z,100.00
2023-05-19T01:50:08.150Z,100.00
2023-05-19T01:50:30.141Z,100.00
2023-05-19T01:50:52.362Z,100.00
2023-05-19T01:51:14.217Z,100.00
2023-05-19T01:51:37.734Z,100.00
2023-05-19T01:52:00.467Z,100.00
2023-05-19T01:52:22.561Z,100.00
2023-05-19T01:52:44.532Z,100.00
2023-05-19T01:53:06.307Z,100.00
2023-05-19T01:53:29.562Z,100.00
2023-05-19T01:53:51.545Z,100.00
2023-05-19T01:54:13.517Z,100.00
2023-05-19T01:54:35.415Z,100.00
2023-05-19T01:54:57.151Z,100.00
2023-05-19T01:55:19.278Z,100.00
2023-05-19T01:55:45.343Z,100.00
2023-05-19T01:56:07.438Z,100.00
2023-05-19T01:56:34.582Z,100.00
2023-05-19T01:57:14.512Z,100.00
2023-05-19T01:57:51.968Z,100.00
2023-05-19T01:58:16.962Z,100.00
2023-05-19T01:58:46.096Z,100.00
2023-05-19T01:59:15.783Z,100.00
2023-05-19T01:59:42.144Z,100.00
2023-05-19T02:00:05.871Z,100.00
2023-05-19T02:00:34.719Z,100.00
2023-05-19T02:01:08.638Z,100.00
2023-05-19T02:01:33.407Z,100.00
2023-05-19T02:01:56.731Z,100.00
2023-05-19T02:02:34.360Z,100.00
2023-05-19T02:03:08.437Z,100.00
2023-05-19T02:03:30.493Z,100.00
2023-05-19T02:04:11.053Z,100.00
2023-05-19T02:04:44.281Z,100.00
2023-05-19T02:05:18.718Z,100.00
2023-05-19T02:05:40.585Z,100.00
2023-05-19T02:06:02.581Z,100.00
2023-05-19T02:06:33.562Z,100.00
2023-05-19T02:07:01.748Z,100.00
2023-05-19T02:07:27.608Z,100.00
2023-05-19T02:07:52.529Z,100.00
2023-05-19T02:08:16.962Z,100.00
2023-05-19T02:08:38.856Z,100.00
2023-05-19T02:09:04.037Z,100.00
2023-05-19T02:09:42.873Z,100.00
2023-05-19T02:10:05.576Z,100.00
2023-05-19T02:10:28.179Z,100.00
2023-05-19T02:10:51.194Z,100.00
2023-05-19T02:11:21.826Z,100.00
2023-05-19T02:11:47.450Z,100.00
2023-05-19T02:12:16.796Z,100.00
2023-05-19T02:12:40.408Z,100.00
2023-05-19T02:13:04.496Z,100.00
2023-05-19T02:13:29.001Z,100.00
2023-05-19T02:13:51.525Z,100.00
2023-05-19T02:14:18.311Z,100.00
2023-05-19T02:14:50.263Z,100.00
2023-05-19T02:15:16.080Z,100.00
2023-05-19T02:15:42.361Z,100.00
2023-05-19T02:16:04.994Z,100.00
2023-05-19T02:16:27.830Z,100.00
2023-05-19T02:16:50.176Z,100.00
2023-05-19T02:17:13.292Z,100.00
2023-05-19T02:17:40.367Z,100.00
2023-05-19T02:18:04.727Z,100.00
2023-05-19T02:18:30.210Z,100.00
2023-05-19T02:18:54.099Z,100.00
2023-05-19T02:19:26.041Z,100.00
2023-05-19T02:19:50.583Z,100.00
2023-05-19T02:20:12.470Z,100.00
2023-05-19T02:20:34.742Z,100.00
2023-05-19T02:20:56.741Z,100.00
2023-05-19T02:21:19.673Z,100.00
2023-05-19T02:21:41.557Z,100.00
2023-05-19T02:22:03.479Z,100.00
2023-05-19T02:22:25.474Z,100.00
2023-05-19T02:22:47.341Z,100.00
2023-05-19T02:23:09.200Z,100.00
2023-05-19T02:23:31.304Z,100.00
2023-05-19T02:23:53.076Z,100.00
2023-05-19T02:24:14.962Z,100.00
2023-05-19T02:24:37.797Z,100.00
2023-05-19T02:24:59.659Z,100.00
2023-05-19T02:25:21.953Z,100.00
2023-05-19T02:25:43.940Z,100.00
2023-05-19T02:26:06.241Z,100.00
2023-05-19T02:26:28.342Z,100.00
2023-05-19T02:26:50.619Z,100.00
2023-05-19T02:27:13.796Z,100.00
2023-05-19T02:27:36.660Z,100.00
2023-05-19T02:27:58.624Z,100.00
2023-05-19T02:28:20.526Z,100.00
2023-05-19T02:28:42.263Z,100.00
2023-05-19T02:29:03.995Z,100.00
2023-05-19T02:29:26.083Z,100.00
2023-05-19T02:29:47.808Z,100.00
2023-05-19T02:30:09.966Z,100.00
2023-05-19T02:30:32.528Z,100.00
2023-05-19T02:30:55.575Z,100.00
2023-05-19T02:31:17.508Z,100.00
2023-05-19T02:31:39.602Z,100.00
2023-05-19T02:32:02.337Z,100.00
2023-05-19T02:32:24.449Z,100.00
2023-05-19T02:32:46.968Z,100.00
2023-05-19T02:33:08.866Z,100.00
2023-05-19T02:33:31.750Z,100.00
2023-05-19T02:33:53.528Z,100.00
2023-05-19T02:34:15.622Z,100.00
2023-05-19T02:34:37.726Z,100.00
2023-05-19T02:35:00.181Z,100.00
2023-05-19T02:35:22.620Z,100.00
2023-05-19T02:35:44.506Z,100.00
2023-05-19T02:36:06.757Z,100.00
2023-05-19T02:36:28.611Z,100.00
2023-05-19T02:36:50.900Z,100.00
2023-05-19T02:37:13.987Z,100.00
2023-05-19T02:37:35.907Z,100.00
2023-05-19T02:37:57.726Z,100.00
2023-05-19T02:38:21.629Z,100.00
2023-05-19T02:38:43.368Z,100.00
2023-05-19T02:39:05.278Z,100.00
2023-05-19T02:39:29.260Z,100.00
2023-05-19T02:39:51.489Z,100.00
2023-05-19T02:40:13.294Z,100.00
2023-05-19T02:40:35.078Z,100.00
2023-05-19T02:40:57.150Z,100.00
2023-05-19T02:41:19.094Z,100.00
2023-05-19T02:41:41.067Z,100.00
2023-05-19T02:42:04.345Z,100.00
2023-05-19T02:42:26.157Z,100.00
2023-05-19T02:42:48.034Z,100.00
2023-05-19T02:43:09.903Z,100.00
2023-05-19T02:43:32.211Z,100.00
2023-05-19T02:43:54.052Z,100.00
2023-05-19T02:44:15.824Z,100.00
2023-05-19T02:44:37.756Z,100.00
2023-05-19T02:45:00.292Z,100.00
2023-05-19T02:45:22.261Z,100.00
2023-05-19T02:45:44.239Z,100.00
2023-05-19T02:46:06.227Z,100.00
2023-05-19T02:46:28.329Z,100.00
2023-05-19T02:46:50.437Z,100.00
2023-05-19T02:47:13.217Z,100.00
2023-05-19T02:47:37.018Z,100.00
2023-05-19T02:47:59.632Z,100.00
2023-05-19T02:48:21.637Z,100.00
2023-05-19T02:48:43.522Z,100.00
2023-05-19T02:49:05.633Z,100.00
2023-05-19T02:49:27.572Z,100.00
2023-05-19T02:49:49.698Z,100.00
2023-05-19T02:50:11.611Z,100.00
2023-05-19T02:50:33.488Z,100.00
2023-05-19T02:50:55.774Z,100.00
2023-05-19T02:51:17.751Z,100.00
2023-05-19T02:51:39.499Z,100.00
2023-05-19T02:52:04.957Z,100.00
2023-05-19T02:52:26.890Z,100.00
2023-05-19T02:52:48.673Z,100.00
2023-05-19T02:53:10.563Z,100.00
2023-05-19T02:53:32.449Z,100.00
2023-05-19T02:53:54.336Z,100.00
2023-05-19T02:54:16.119Z,100.00
2023-05-19T02:54:37.866Z,100.00
2023-05-19T02:54:59.685Z,100.00
2023-05-19T02:55:21.414Z,100.00
2023-05-19T02:55:43.136Z,100.00
2023-05-19T02:56:04.867Z,100.00
2023-05-19T02:56:28.303Z,100.00
2023-05-19T02:56:50.251Z,100.00
2023-05-19T02:57:12.128Z,100.00
2023-05-19T02:57:34.942Z,100.00
2023-05-19T02:57:56.943Z,100.00
2023-05-19T02:58:18.878Z,100.00
2023-05-19T02:58:43.359Z,100.00
2023-05-19T02:59:06.504Z,100.00
2023-05-19T02:59:28.362Z,100.00
2023-05-19T02:59:50.274Z,100.00
2023-05-19T03:00:12.476Z,100.00
2023-05-19T03:00:34.413Z,100.00
2023-05-19T03:00:56.790Z,100.00
2023-05-19T03:01:18.858Z,100.00
2023-05-19T03:01:40.881Z,100.00
2023-05-19T03:02:03.081Z,100.00
2023-05-19T03:02:25.104Z,100.00
2023-05-19T03:02:47.269Z,100.00
2023-05-19T03:03:10.562Z,100.00
2023-05-19T03:03:33.178Z,100.00
2023-05-19T03:03:55.169Z,100.00
2023-05-19T03:04:20.200Z,100.00
2023-05-19T03:04:43.117Z,100.00
2023-05-19T03:05:05.509Z,100.00
2023-05-19T03:05:27.450Z,100.00
2023-05-19T03:05:49.438Z,100.00
2023-05-19T03:06:11.428Z,100.00
2023-05-19T03:06:33.179Z,100.00
2023-05-19T03:06:55.100Z,100.00
2023-05-19T03:07:17.120Z,100.00
2023-05-19T03:07:38.942Z,100.00
2023-05-19T03:08:00.766Z,100.00
2023-05-19T03:08:22.863Z,100.00
2023-05-19T03:08:45.256Z,100.00
2023-05-19T03:09:07.394Z,100.00
2023-05-19T03:09:29.227Z,100.00
2023-05-19T03:09:51.172Z,100.00
2023-05-19T03:10:12.952Z,100.00
2023-05-19T03:10:35.199Z,100.00
2023-05-19T03:10:57.416Z,100.00
2023-05-19T03:11:19.376Z,100.00
2023-05-19T03:11:41.366Z,100.00
2023-05-19T03:12:04.729Z,100.00
2023-05-19T03:12:26.533Z,100.00
2023-05-19T03:12:48.457Z,100.00
2023-05-19T03:13:10.343Z,100.00
2023-05-19T03:13:32.435Z,100.00
2023-05-19T03:13:54.212Z,100.00
2023-05-19T03:14:15.955Z,100.00
2023-05-19T03:14:38.820Z,100.00
2023-05-19T03:15:01.312Z,100.00
2023-05-19T03:15:23.612Z,100.00
2023-05-19T03:15:45.492Z,100.00
2023-05-19T03:16:08.365Z,100.00
2023-05-19T03:16:30.715Z,100.00
2023-05-19T03:16:53.035Z,100.00
2023-05-19T03:17:15.392Z,100.00
2023-05-19T03:17:37.385Z,100.00
2023-05-19T03:17:59.559Z,100.00
2023-05-19T03:18:21.620Z,100.00
2023-05-19T03:18:43.493Z,100.00
2023-05-19T03:19:05.442Z,100.00
2023-05-19T03:19:27.871Z,100.00
2023-05-19T03:19:49.754Z,100.00
2023-05-19T03:20:12.028Z,100.00
2023-05-19T03:20:34.123Z,100.00
2023-05-19T03:20:56.729Z,100.00
2023-05-19T03:21:18.631Z,100.00
2023-05-19T03:21:40.897Z,100.00
2023-05-19T03:22:02.653Z,100.00
2023-05-19T03:22:24.714Z,100.00
2023-05-19T03:22:46.505Z,100.00
2023-05-19T03:23:09.382Z,100.00
2023-05-19T03:23:31.141Z,100.00
2023-05-19T03:23:53.240Z,100.00
2023-05-19T03:24:16.459Z,100.00
2023-05-19T03:24:38.254Z,100.00
2023-05-19T03:25:00.039Z,100.00
2023-05-19T03:25:22.127Z,100.00
2023-05-19T03:25:43.857Z,100.00
2023-05-19T03:26:06.353Z,100.00
2023-05-19T03:26:29.540Z,100.00
2023-05-19T03:26:52.020Z,100.00
2023-05-19T03:27:14.626Z,100.00
2023-05-19T03:27:36.517Z,100.00
2023-05-19T03:27:58.601Z,100.00
2023-05-19T03:28:20.644Z,100.00
2023-05-19T03:28:42.824Z,100.00
2023-05-19T03:29:04.593Z,100.00
2023-05-19T03:29:27.111Z,100.00
2023-05-19T03:29:49.364Z,100.00
2023-05-19T03:30:11.971Z,100.00
2023-05-19T03:30:44.813Z,100.00
2023-05-19T03:31:09.720Z,100.00
2023-05-19T03:31:33.484Z,100.00
2023-05-19T03:31:55.572Z,100.00
2023-05-19T03:32:17.399Z,100.00
2023-05-19T03:32:40.355Z,100.00
2023-05-19T03:33:03.170Z,100.00
2023-05-19T03:33:25.270Z,100.00
2023-05-19T03:33:47.666Z,100.00
2023-05-19T03:34:09.582Z,100.00
2023-05-19T03:34:32.900Z,100.00
2023-05-19T03:34:54.824Z,100.00
2023-05-19T03:35:16.879Z,100.00
2023-05-19T03:35:38.838Z,100.00
2023-05-19T03:36:00.630Z,100.00
2023-05-19T03:36:23.437Z,100.00
2023-05-19T03:36:45.157Z,100.00
2023-05-19T03:37:10.997Z,100.00
2023-05-19T03:37:33.699Z,100.00
2023-05-19T03:37:55.636Z,100.00
2023-05-19T03:38:17.571Z,100.00
2023-05-19T03:38:45.623Z,100.00
2023-05-19T03:39:07.421Z,100.00
2023-05-19T03:39:29.375Z,100.00
2023-05-19T03:39:51.355Z,100.00
2023-05-19T03:40:13.655Z,100.00
2023-05-19T03:40:36.969Z,100.00
2023-05-19T03:41:01.310Z,100.00
2023-05-19T03:41:23.094Z,100.00
2023-05-19T03:41:44.940Z,100.00
2023-05-19T03:42:06.877Z,100.00
2023-05-19T03:42:28.867Z,100.00
2023-05-19T03:42:50.949Z,100.00
2023-05-19T03:43:13.450Z,100.00
2023-05-19T03:43:40.758Z,100.00
2023-05-19T03:44:02.850Z,100.00
2023-05-19T03:44:24.941Z,100.00
2023-05-19T03:44:47.294Z,100.00
2023-05-19T03:45:09.672Z,100.00
2023-05-19T03:45:31.661Z,100.00
2023-05-19T03:45:54.070Z,100.00
2023-05-19T03:46:34.844Z,100.00
2023-05-19T03:47:15.541Z,100.00
2023-05-19T03:47:37.502Z,100.00
2023-05-19T03:48:11.529Z,100.00
2023-05-19T03:48:52.398Z,100.00
2023-05-19T03:49:22.664Z,100.00
2023-05-19T03:50:03.072Z,100.00
2023-05-19T03:50:45.707Z,100.00
2023-05-19T03:51:12.392Z,100.00
2023-05-19T03:51:35.221Z,100.00
2023-05-19T03:52:17.661Z,100.00
2023-05-19T03:53:02.350Z,100.00
2023-05-19T03:53:26.974Z,100.00
2023-05-19T03:53:49.088Z,100.00
2023-05-19T03:54:10.919Z,100.00
2023-05-19T03:54:32.863Z,100.00
2023-05-19T03:54:54.675Z,100.00
2023-05-19T03:55:16.640Z,100.00
2023-05-19T03:55:39.040Z,100.00
2023-05-19T03:56:01.351Z,100.00
2023-05-19T03:56:25.255Z,100.00
2023-05-19T03:56:47.194Z,100.00
2023-05-19T03:57:10.190Z,100.00
2023-05-19T03:57:32.355Z,100.00
2023-05-19T03:57:54.140Z,100.00
2023-05-19T03:58:16.076Z,100.00
2023-05-19T03:58:40.928Z,100.00
2023-05-19T03:59:02.681Z,100.00
2023-05-19T03:59:24.516Z,100.00
2023-05-19T03:59:46.433Z,100.00
2023-05-19T04:00:11.391Z,100.00
2023-05-19T04:00:36.084Z,100.00
2023-05-19T04:00:58.018Z,100.00
2023-05-19T04:01:19.912Z,100.00
2023-05-19T04:01:41.933Z,100.00
2023-05-19T04:02:03.799Z,100.00
2023-05-19T04:02:25.956Z,100.00
2023-05-19T04:02:47.926Z,100.00
2023-05-19T04:03:09.978Z,100.00
2023-05-19T04:03:32.008Z,100.00
2023-05-19T04:03:54.041Z,100.00
2023-05-19T04:04:15.859Z,100.00
2023-05-19T04:04:38.433Z,100.00
2023-05-19T04:05:00.327Z,100.00
2023-05-19T04:05:22.210Z,100.00
2023-05-19T04:05:44.191Z,100.00
2023-05-19T04:06:06.695Z,100.00
2023-05-19T04:06:28.580Z,100.00
2023-05-19T04:06:50.466Z,100.00
2023-05-19T04:07:12.756Z,100.00
2023-05-19T04:07:34.502Z,100.00
2023-05-19T04:07:57.455Z,100.00
2023-05-19T04:08:19.448Z,100.00
2023-05-19T04:08:41.741Z,100.00
2023-05-19T04:09:05.196Z,100.00
2023-05-19T04:09:27.252Z,100.00
2023-05-19T04:09:51.051Z,100.00
2023-05-19T04:10:12.884Z,100.00
2023-05-19T04:10:34.691Z,100.00
2023-05-19T04:10:56.943Z,100.00
2023-05-19T04:11:20.301Z,100.00
2023-05-19T04:11:42.574Z,100.00
2023-05-19T04:12:04.781Z,100.00
2023-05-19T04:12:26.551Z,100.00
2023-05-19T04:12:48.309Z,100.00
2023-05-19T04:13:11.694Z,100.00
2023-05-19T04:13:33.889Z,100.00
2023-05-19T04:13:55.929Z,100.00
2023-05-19T04:14:17.718Z,99.82
2023-05-19T04:14:39.595Z,99.57
2023-05-19T04:15:01.486Z,99.27
2023-05-19T04:15:23.246Z,99.37
2023-05-19T04:15:45.895Z,99.35
2023-05-19T04:16:08.057Z,99.35
2023-05-19T04:16:30.031Z,99.56
2023-05-19T04:16:52.449Z,99.64
2023-05-19T04:17:14.344Z,99.63
2023-05-19T04:17:36.265Z,99.62
2023-05-19T04:17:58.257Z,99.51
2023-05-19T04:18:20.129Z,99.19
2023-05-19T04:18:42.739Z,98.73
2023-05-19T04:19:04.869Z,98.05
2023-05-19T04:19:26.858Z,97.92
2023-05-19T04:19:50.617Z,97.43
2023-05-19T04:20:12.583Z,97.15
2023-05-19T04:20:34.412Z,97.06
2023-05-19T04:20:56.684Z,96.90
2023-05-19T04:21:18.521Z,96.84
2023-05-19T04:21:40.776Z,96.92
2023-05-19T04:22:02.489Z,97.07
2023-05-19T04:22:24.764Z,97.00
2023-05-19T04:22:46.502Z,97.13
2023-05-19T04:23:08.995Z,97.32
2023-05-19T04:23:30.913Z,97.33
2023-05-19T04:23:53.077Z,97.38
2023-05-19T04:24:14.848Z,97.49
2023-05-19T04:24:36.981Z,97.39
2023-05-19T04:24:59.482Z,97.24
2023-05-19T04:25:21.574Z,97.05
2023-05-19T04:25:43.557Z,96.69
2023-05-19T04:26:06.929Z,96.28
2023-05-19T04:26:31.252Z,95.98
2023-05-19T04:26:53.452Z,95.73
2023-05-19T04:27:16.446Z,95.64
2023-05-19T04:27:39.537Z,95.61
2023-05-19T04:28:01.635Z,95.39
2023-05-19T04:28:24.222Z,95.27
2023-05-19T04:28:45.948Z,94.90
2023-05-19T04:29:07.812Z,94.61
2023-05-19T04:29:29.721Z,94.49
2023-05-19T04:29:51.497Z,94.18
2023-05-19T04:30:18.512Z,93.93
2023-05-19T04:30:42.667Z,93.21
2023-05-19T04:31:04.607Z,92.68
2023-05-19T04:31:27.617Z,92.43
2023-05-19T04:31:49.705Z,92.39
2023-05-19T04:32:12.032Z,92.34
2023-05-19T04:32:34.115Z,91.96
2023-05-19T04:32:58.272Z,91.39
2023-05-19T04:33:20.252Z,91.06
2023-05-19T04:33:42.463Z,90.96
2023-05-19T04:34:04.602Z,90.78
2023-05-19T04:34:28.875Z,90.78
2023-05-19T04:34:51.241Z,90.75
2023-05-19T04:35:17.965Z,90.70
2023-05-19T04:35:40.027Z,90.52
2023-05-19T04:36:05.941Z,90.47
2023-05-19T04:36:27.870Z,89.99
2023-05-19T04:36:53.114Z,89.69
2023-05-19T04:37:18.570Z,89.46
2023-05-19T04:37:40.666Z,89.38
2023-05-19T04:38:03.115Z,89.03
2023-05-19T04:38:26.533Z,89.10
2023-05-19T04:38:49.135Z,88.53
2023-05-19T04:39:12.451Z,88.03
2023-05-19T04:39:38.998Z,87.50
2023-05-19T04:40:00.755Z,87.42
2023-05-19T04:40:24.147Z,87.20
2023-05-19T04:40:50.476Z,86.96
2023-05-19T04:41:12.661Z,86.49
2023-05-19T04:41:35.288Z,86.31
2023-05-19T04:41:58.268Z,86.16
2023-05-19T04:42:20.539Z,86.11
2023-05-19T04:42:46.225Z,86.02
2023-05-19T04:43:09.729Z,85.95
2023-05-19T04:43:32.004Z,85.87
2023-05-19T04:43:57.694Z,85.74
2023-05-19T04:44:19.894Z,85.64
2023-05-19T04:44:43.924Z,85.59
2023-05-19T04:45:08.922Z,85.48
2023-05-19T04:45:33.366Z,85.16
2023-05-19T04:45:58.695Z,85.06
2023-05-19T04:46:24.670Z,84.72
2023-05-19T04:46:47.042Z,84.56
2023-05-19T04:47:10.686Z,84.46
2023-05-19T04:47:37.092Z,84.48
2023-05-19T04:47:59.522Z,84.19
2023-05-19T04:48:24.017Z,84.08
2023-05-19T04:48:46.007Z,83.95
2023-05-19T04:49:08.115Z,83.69
2023-05-19T04:49:29.865Z,83.55
2023-05-19T04:49:55.839Z,83.19
2023-05-19T04:50:17.843Z,82.89
2023-05-19T04:50:42.445Z,82.73
2023-05-19T04:51:05.157Z,82.23
2023-05-19T04:51:30.273Z,81.67
2023-05-19T04:51:55.824Z,81.21
2023-05-19T04:52:21.985Z,80.67
2023-05-19T04:52:45.682Z,80.55
2023-05-19T04:53:08.901Z,80.73